createdAt,value
2023-04-02T00:00:09.986Z,10.43
2023-04-02T00:02:59.209Z,10.26
2023-04-02T00:05:35.675Z,10.14
2023-04-02T00:08:18.854Z,9.98
2023-04-02T00:10:54.025Z,9.77
2023-04-02T00:13:41.781Z,9.54
2023-04-02T00:16:14.208Z,9.39
2023-04-02T00:18:50.376Z,9.38
2023-04-02T00:21:37.711Z,9.42
2023-04-02T00:24:23.135Z,9.41
2023-04-02T00:26:53.814Z,9.37
2023-04-02T00:29:22.586Z,9.34
2023-04-02T00:31:53.790Z,9.37
2023-04-02T00:34:40.541Z,9.41
2023-04-02T00:37:24.501Z,9.40
2023-04-02T00:40:02.967Z,9.41
2023-04-02T00:42:32.424Z,9.36
2023-04-02T00:45:02.984Z,9.30
2023-04-02T00:47:38.166Z,9.28
2023-04-02T00:50:19.031Z,9.27
2023-04-02T00:52:51.502Z,9.16
2023-04-02T00:55:27.948Z,9.11
2023-04-02T00:57:58.637Z,9.11
2023-04-02T01:00:37.408Z,9.17
2023-04-02T01:03:17.633Z,9.23
2023-04-02T01:05:51.007Z,9.31
2023-04-02T01:08:42.685Z,9.35
2023-04-02T01:11:34.899Z,9.39
2023-04-02T01:14:35.448Z,9.37
2023-04-02T01:17:43.456Z,9.36
2023-04-02T01:20:33.851Z,9.36
2023-04-02T01:23:08.408Z,9.40
2023-04-02T01:26:03.203Z,9.44
2023-04-02T01:28:53.214Z,9.52
2023-04-02T01:31:22.593Z,9.57
2023-04-02T01:33:51.291Z,9.60
2023-04-02T01:37:04.324Z,9.60
2023-04-02T01:40:03.896Z,9.51
2023-04-02T01:42:53.321Z,9.44
2023-04-02T01:45:24.042Z,9.39
2023-04-02T01:47:53.527Z,9.37
2023-04-02T01:50:53.001Z,9.38
2023-04-02T01:53:23.866Z,9.39
2023-04-02T01:55:55.532Z,9.40
2023-04-02T01:58:30.046Z,9.41
2023-04-02T02:01:15.743Z,9.40
2023-04-02T02:03:46.405Z,9.42
2023-04-02T02:06:18.084Z,9.43
2023-04-02T02:08:58.717Z,9.41
2023-04-02T02:11:29.519Z,9.29
2023-04-02T02:14:19.436Z,9.21
2023-04-02T02:16:48.519Z,9.10
2023-04-02T02:19:38.923Z,9.03
2023-04-02T02:22:29.125Z,8.95
2023-04-02T02:25:01.082Z,8.91
2023-04-02T02:27:29.160Z,8.89
2023-04-02T02:30:23.246Z,8.89
2023-04-02T02:33:04.734Z,8.97
2023-04-02T02:35:50.551Z,9.04
2023-04-02T02:38:49.544Z,9.07
2023-04-02T02:41:38.604Z,9.05
2023-04-02T02:44:29.725Z,9.17
2023-04-02T02:47:05.647Z,9.24
2023-04-02T02:49:40.287Z,9.29
2023-04-02T02:52:22.287Z,9.33
2023-04-02T02:55:01.980Z,9.38
2023-04-02T02:57:47.601Z,9.42
2023-04-02T03:00:20.242Z,9.40
2023-04-02T03:02:50.493Z,9.38
2023-04-02T03:05:24.441Z,9.23
2023-04-02T03:07:57.716Z,9.21
2023-04-02T03:10:39.794Z,9.19
2023-04-02T03:13:24.674Z,9.25
2023-04-02T03:16:03.465Z,9.28
2023-04-02T03:18:45.439Z,9.47
2023-04-02T03:21:26.565Z,9.54
2023-04-02T03:24:23.640Z,9.65
2023-04-02T03:27:28.958Z,9.79
2023-04-02T03:30:31.917Z,9.81
2023-04-02T03:33:11.877Z,9.82
2023-04-02T03:36:24.426Z,9.84
2023-04-02T03:39:45.318Z,9.88
2023-04-02T03:42:28.678Z,9.77
2023-04-02T03:45:06.519Z,9.63
2023-04-02T03:47:46.757Z,9.56
2023-04-02T03:50:38.278Z,9.51
2023-04-02T03:53:07.437Z,9.56
2023-04-02T03:55:41.840Z,9.68
2023-04-02T03:58:44.872Z,9.77
2023-04-02T04:01:34.926Z,9.86
2023-04-02T04:04:19.862Z,9.94
2023-04-02T04:06:52.820Z,9.99
2023-04-02T04:09:27.859Z,10.03
2023-04-02T04:12:35.227Z,10.07
2023-04-02T04:15:37.117Z,10.14
2023-04-02T04:18:35.228Z,10.17
2023-04-02T04:21:30.706Z,10.20
2023-04-02T04:24:16.659Z,10.20
2023-04-02T04:26:53.955Z,10.23
2023-04-02T04:29:46.016Z,10.24
2023-04-02T04:32:39.432Z,10.26
2023-04-02T04:35:29.708Z,10.25
2023-04-02T04:38:08.458Z,10.26
2023-04-02T04:40:43.064Z,10.21
2023-04-02T04:43:22.339Z,10.15
2023-04-02T04:46:09.350Z,10.08
2023-04-02T04:48:47.135Z,10.08
2023-04-02T04:51:26.545Z,10.09
2023-04-02T04:53:57.031Z,10.12
2023-04-02T04:56:32.212Z,10.14
2023-04-02T04:59:25.418Z,10.07
2023-04-02T05:02:09.346Z,9.98
2023-04-02T05:04:42.870Z,9.88
2023-04-02T05:07:37.221Z,9.82
2023-04-02T05:10:28.000Z,9.79
2023-04-02T05:13:11.589Z,9.74
2023-04-02T05:15:47.649Z,9.70
2023-04-02T05:18:40.038Z,9.61
2023-04-02T05:21:34.639Z,9.50
2023-04-02T05:24:26.647Z,9.31
2023-04-02T05:27:02.192Z,9.06
2023-04-02T05:29:37.735Z,9.00
2023-04-02T05:32:14.844Z,8.93
2023-04-02T05:34:49.889Z,8.95
2023-04-02T05:37:22.420Z,8.99
2023-04-02T05:39:57.462Z,9.07
2023-04-02T05:42:31.696Z,9.19
2023-04-02T19:09:41.891Z,14.12
2023-04-02T19:12:17.418Z,14.17
2023-04-02T19:14:50.254Z,14.25
2023-04-02T19:17:34.122Z,14.30
2023-04-02T19:20:08.401Z,14.38
2023-04-02T19:22:47.267Z,14.38
2023-04-02T19:25:34.731Z,14.34
2023-04-02T19:28:15.149Z,14.32
2023-04-02T19:31:25.131Z,14.30
2023-04-02T19:34:00.230Z,14.23
2023-04-02T19:36:34.668Z,14.18
2023-04-02T19:39:17.867Z,14.13
2023-04-02T19:41:54.604Z,14.06
2023-04-02T19:44:22.971Z,14.07
2023-04-02T19:46:51.989Z,14.06
2023-04-02T19:49:41.153Z,14.08
2023-04-02T19:52:24.068Z,14.09
2023-04-02T19:54:56.135Z,14.13
2023-04-02T19:57:24.425Z,14.18
2023-04-02T19:59:52.826Z,14.19
2023-04-02T20:02:21.300Z,14.20
2023-04-02T20:04:49.605Z,14.22
2023-04-02T20:07:17.880Z,14.22
2023-04-02T20:09:46.520Z,14.22
2023-04-02T20:12:14.859Z,14.23
2023-04-02T20:14:43.251Z,14.22
2023-04-02T20:17:11.450Z,14.25
2023-04-02T20:19:39.603Z,14.22
2023-04-02T20:22:07.864Z,14.21
2023-04-02T20:24:36.228Z,14.19
2023-04-02T20:27:04.594Z,14.16
2023-04-02T20:29:59.797Z,14.12
2023-04-02T20:32:31.480Z,14.04
2023-04-02T20:35:00.034Z,13.99
2023-04-02T20:37:28.604Z,13.96
2023-04-02T20:39:59.722Z,13.93
2023-04-02T20:42:28.502Z,13.90
2023-04-02T20:44:57.084Z,13.87
2023-04-02T20:47:25.483Z,13.85
2023-04-02T20:49:53.850Z,13.81
2023-04-02T20:52:22.566Z,13.79
2023-04-02T20:54:51.460Z,13.73
2023-04-02T20:57:22.363Z,13.62
2023-04-02T20:59:50.766Z,13.59
2023-04-02T21:02:19.102Z,13.55
2023-04-02T21:04:47.508Z,13.51
2023-04-02T21:07:16.081Z,13.51
2023-04-02T21:09:44.201Z,13.48
2023-04-02T21:12:12.649Z,13.45
2023-04-02T21:14:41.083Z,13.38
2023-04-02T21:17:09.278Z,13.33
2023-04-02T21:19:37.449Z,13.31
2023-04-02T21:22:05.723Z,13.28
2023-04-02T21:24:33.917Z,13.25
2023-04-02T21:27:02.119Z,13.19
2023-04-02T21:29:30.759Z,13.10
2023-04-02T21:32:01.543Z,13.05
2023-04-02T21:34:34.159Z,13.02
2023-04-02T21:37:02.653Z,12.98
2023-04-02T21:39:31.639Z,12.98
2023-04-02T21:41:59.937Z,12.97
2023-04-02T21:44:28.220Z,12.90
2023-04-02T21:46:57.003Z,12.85
2023-04-02T21:49:26.753Z,12.80
2023-04-02T21:51:55.028Z,12.78
2023-04-02T21:54:23.562Z,12.76
2023-04-02T21:56:53.034Z,12.74
2023-04-02T21:59:21.229Z,12.74
2023-04-02T22:01:51.391Z,12.71
2023-04-02T22:04:25.457Z,12.63
2023-04-02T22:06:54.268Z,12.60
2023-04-02T22:09:25.030Z,12.55
2023-04-02T22:11:56.440Z,12.47
2023-04-02T22:14:24.601Z,12.41
2023-04-02T22:16:52.819Z,12.36
2023-04-02T22:19:21.775Z,12.30
2023-04-02T22:21:50.419Z,12.18
2023-04-02T22:24:19.746Z,12.05
2023-04-02T22:26:48.614Z,11.93
2023-04-02T22:29:17.377Z,11.87
2023-04-02T22:31:46.811Z,11.87
2023-04-02T22:34:15.050Z,11.87
2023-04-02T22:36:43.290Z,11.90
2023-04-02T22:39:12.628Z,11.91
2023-04-02T22:41:41.429Z,11.92
2023-04-02T22:44:14.575Z,11.91
2023-04-02T22:46:42.780Z,11.81
2023-04-02T22:49:12.403Z,11.81
2023-04-02T22:51:40.453Z,11.82
2023-04-02T22:54:08.496Z,11.83
2023-04-02T22:56:37.793Z,11.82
2023-04-02T22:59:06.176Z,11.82
2023-04-02T23:01:36.481Z,11.86
2023-04-02T23:04:05.654Z,11.88
2023-04-02T23:06:34.133Z,11.88
2023-04-02T23:09:02.435Z,11.79
2023-04-02T23:11:30.712Z,11.69
2023-04-02T23:13:59.511Z,11.61
2023-04-02T23:16:29.910Z,11.50
2023-04-02T23:18:58.549Z,11.33
2023-04-02T23:21:27.857Z,11.16
2023-04-02T23:23:56.688Z,11.01
2023-04-02T23:26:31.562Z,10.98
2023-04-02T23:29:01.011Z,10.97
2023-04-02T23:31:29.401Z,10.94
2023-04-02T23:33:57.654Z,10.81
2023-04-02T23:36:25.785Z,10.77
2023-04-02T23:38:56.103Z,10.78
2023-04-02T23:41:27.226Z,10.82
2023-04-02T23:43:56.934Z,10.87
2023-04-02T23:46:26.400Z,10.90
2023-04-02T23:48:56.210Z,10.92
2023-04-02T23:51:25.048Z,10.93
2023-04-02T23:53:55.658Z,10.93
2023-04-02T23:56:25.022Z,10.91
2023-04-02T23:58:53.294Z,10.86
